Time;durP1;ratioP1;P1;durP2;ratioP2;P2;SDS_P1;SDS_P2;PMS_P1;PMS_P2;Temp;Humidity;BMP_temperature;BMP_pressure;BME280_temperature;BME280_humidity;BME280_pressure;Samples;Min_cycle;Max_cycle;Signal;HPM_P1;HPM_P2
2023/04/01 00:02:11;;;;;;;3.50;1.02;;;9.60;99.90;;;-144.05;82.14;56931.66;5056859;28;20085;-77
2023/04/01 00:04:37;;;;;;;5.93;1.10;;;9.60;99.90;;;-144.05;82.76;56950.78;5056747;28;20108;-79
2023/04/01 00:07:03;;;;;;;2.90;0.80;;;9.60;99.90;;;-144.05;82.41;56944.41;5056528;28;20579;-77
2023/04/01 00:09:29;;;;;;;3.90;1.00;;;9.60;99.90;;;-144.05;83.02;56946.53;5055253;28;20067;-79
2023/04/01 00:11:55;;;;;;;3.13;0.90;;;9.60;99.90;;;-144.05;83.13;56948.66;5055795;28;20624;-78
2023/04/01 00:14:21;;;;;;;2.38;0.68;;;9.50;99.90;;;-144.05;83.44;56972.03;5054883;28;20029;-76
2023/04/01 00:16:46;;;;;;;2.47;0.80;;;9.50;99.90;;;-144.05;84.05;56946.53;5055185;28;20029;-76
2023/04/01 00:19:12;;;;;;;3.13;0.88;;;9.50;99.90;;;-144.05;83.70;56961.41;5037019;28;20447;-79
2023/04/01 00:21:38;;;;;;;3.50;0.75;;;9.40;99.90;;;-144.05;84.07;56929.53;5055499;28;20032;-77
2023/04/01 00:24:04;;;;;;;4.28;0.90;;;9.40;99.90;;;-144.05;84.06;56952.91;5055261;28;20107;-76
2023/04/01 00:26:30;;;;;;;2.10;0.73;;;9.40;99.90;;;-144.05;84.44;56948.66;5054706;28;20076;-78
2023/04/01 00:28:56;;;;;;;4.10;1.05;;;9.40;99.90;;;-144.05;83.92;56980.53;5054664;28;20029;-76
2023/04/01 00:31:22;;;;;;;2.55;1.10;;;9.40;99.90;;;-144.05;84.70;56963.53;5055042;28;20029;-76
2023/04/01 00:33:48;;;;;;;5.20;1.52;;;9.50;99.90;;;-144.05;84.22;56984.78;5055465;28;20025;-78
2023/04/01 00:36:21;;;;;;;1.38;0.90;;;9.40;99.90;;;-144.05;84.47;56961.41;5055109;28;20036;-76
2023/04/01 00:38:47;;;;;;;2.30;1.00;;;9.40;99.90;;;-144.05;84.57;56976.28;5054550;28;20117;-76
2023/04/01 00:41:16;;;;;;;2.05;0.70;;;9.40;99.90;;;-144.05;84.99;56938.03;5054535;28;20032;-76
2023/04/01 00:43:50;;;;;;;4.40;0.90;;;9.40;99.90;;;-144.05;84.39;56974.16;5055189;28;20075;-78
2023/04/01 00:46:16;;;;;;;1.90;0.85;;;9.40;99.90;;;-144.05;84.66;56965.66;5055074;28;20028;-77
2023/04/01 00:48:55;;;;;;;3.03;0.75;;;9.40;99.90;;;-144.05;84.54;56942.28;5036393;28;20025;-78
2023/04/01 00:51:29;;;;;;;3.38;0.80;;;9.40;99.90;;;-144.05;84.97;56959.28;5036624;28;20031;-78
2023/04/01 00:54:01;;;;;;;1.15;0.77;;;9.40;99.90;;;-144.05;86.00;56942.28;5054361;28;20029;-78
2023/04/01 00:57:03;;;;;;;2.15;0.80;;;9.40;99.90;;;-144.05;85.21;56957.16;5054493;28;20101;-77
2023/04/01 00:59:49;;;;;;;3.30;0.90;;;9.40;99.90;;;-144.05;85.82;56972.03;5054040;28;20029;-77
2023/04/01 01:02:17;;;;;;;3.65;0.80;;;9.40;99.90;;;-144.05;86.05;56957.16;5053933;28;20100;-76
2023/04/01 01:04:43;;;;;;;4.68;1.13;;;9.40;99.90;;;-144.05;86.70;56965.66;5054211;28;20094;-77
2023/04/01 01:07:40;;;;;;;2.97;0.90;;;9.30;99.90;;;-144.05;86.97;56963.53;5054014;28;20112;-77
2023/04/01 01:10:23;;;;;;;3.45;1.10;;;9.30;99.90;;;-144.05;86.81;56950.78;5053610;28;20025;-78
2023/04/01 01:13:58;;;;;;;1.80;0.80;;;9.30;99.90;;;-144.05;86.10;56955.03;5053795;28;20519;-77
2023/04/01 01:16:35;;;;;;;3.53;0.95;;;9.30;99.90;;;-144.05;86.71;56980.53;4970135;28;20054;-76
2023/04/01 01:19:22;;;;;;;3.30;0.60;;;9.30;99.90;;;-144.05;87.13;56969.91;5052811;28;20467;-78
2023/04/01 01:22:18;;;;;;;4.25;0.75;;;9.30;99.90;;;-144.05;86.49;56965.66;5035157;28;20039;-79
2023/04/01 01:25:44;;;;;;;1.05;0.85;;;9.30;99.90;;;-144.05;87.44;56984.78;5052624;28;20071;-77
2023/04/01 01:28:44;;;;;;;1.85;0.65;;;9.30;99.90;;;-144.05;87.23;56952.91;5034234;28;20052;-77
2023/04/01 01:31:57;;;;;;;0.70;0.70;;;9.30;99.90;;;-144.05;87.35;56955.03;5052435;28;20117;-79
2023/04/01 01:35:07;;;;;;;1.67;0.88;;;9.30;99.90;;;-144.05;86.85;56952.91;5052501;28;20059;-78
2023/04/01 01:37:34;;;;;;;4.20;0.98;;;9.30;99.90;;;-144.05;86.76;56972.03;5035857;28;20108;-79
2023/04/01 01:40:07;;;;;;;2.90;0.80;;;9.20;99.90;;;-144.05;87.60;56955.03;5052639;28;20144;-79
2023/04/01 01:42:44;;;;;;;2.88;1.00;;;9.20;99.90;;;-144.05;87.99;56972.03;5052736;28;20060;-77
2023/04/01 01:45:17;;;;;;;1.70;1.17;;;9.20;99.90;;;-144.05;87.75;56946.53;5052988;28;20039;-77
2023/04/01 01:47:45;;;;;;;3.20;0.90;;;9.20;99.90;;;-144.05;88.02;56965.66;5052726;28;20079;-79
2023/04/01 01:50:15;;;;;;;0.70;0.70;;;9.20;99.90;;;-144.05;87.33;56965.66;5052043;28;20036;-77
2023/04/01 01:52:41;;;;;;;1.75;0.88;;;9.20;99.90;;;-144.05;87.68;56944.41;5034812;28;20029;-79
2023/04/01 01:55:36;;;;;;;2.80;0.90;;;9.20;99.90;;;-144.05;87.90;56967.78;5052280;28;20033;-78
2023/04/01 01:58:56;;;;;;;2.65;1.23;;;9.10;99.90;;;-144.05;87.73;56967.78;5035043;28;20068;-78
2023/04/01 02:01:29;;;;;;;2.08;0.80;;;9.20;99.90;;;-144.05;87.27;56946.53;5051978;28;20507;-78
2023/04/01 02:03:58;;;;;;;3.42;1.10;;;9.20;99.90;;;-144.05;87.78;56963.53;5052136;28;20028;-78
2023/04/01 02:06:30;;;;;;;2.75;0.95;;;9.10;99.90;;;-144.05;87.29;56980.53;5034773;28;20405;-79
2023/04/01 02:09:10;;;;;;;3.03;0.93;;;9.10;99.90;;;-144.05;87.82;56955.03;5052003;28;20033;-77
2023/04/01 02:11:56;;;;;;;1.67;0.73;;;9.20;99.90;;;-144.05;87.35;56974.16;5051996;28;20461;-78
2023/04/01 02:14:53;;;;;;;4.63;0.80;;;9.20;99.90;;;-144.05;86.89;56933.78;5034189;28;20029;-79
2023/04/01 02:17:27;;;;;;;2.63;1.27;;;9.20;99.90;;;-144.05;87.63;56948.66;5051399;28;20036;-77
2023/04/01 02:20:11;;;;;;;2.15;0.85;;;9.20;99.90;;;-144.05;87.77;56965.66;5033599;28;20048;-77
2023/04/01 02:22:49;;;;;;;2.38;0.90;;;9.20;99.90;;;-144.05;87.60;56938.03;5033958;28;20029;-77
2023/04/01 02:25:25;;;;;;;2.10;1.20;;;9.20;99.90;;;-144.05;87.15;56967.78;5033748;28;20025;-78
2023/04/01 02:27:56;;;;;;;3.67;1.52;;;9.10;99.90;;;-144.05;86.79;56959.28;5051278;28;20063;-79
2023/04/01 02:30:25;;;;;;;1.70;0.90;;;9.20;99.90;;;-144.05;86.33;56944.41;5051367;28;20051;-78
2023/04/01 02:32:53;;;;;;;2.17;1.20;;;9.20;99.90;;;-144.05;86.59;56969.91;5051204;28;20110;-78
2023/04/01 02:35:19;;;;;;;1.67;0.82;;;9.20;99.90;;;-144.05;86.78;56938.03;5051509;28;20035;-79
2023/04/01 02:37:51;;;;;;;2.42;0.70;;;9.20;99.90;;;-144.05;86.41;56940.16;5051417;28;20021;-78
2023/04/01 02:40:18;;;;;;;1.60;0.70;;;9.20;99.90;;;-144.05;86.28;56965.66;5033218;28;20064;-77
2023/04/01 02:42:44;;;;;;;0.88;0.70;;;9.20;99.90;;;-144.05;87.06;56974.16;5033604;28;20052;-78
2023/04/01 02:45:13;;;;;;;0.90;0.70;;;9.20;99.90;;;-144.05;86.43;56959.28;5051783;28;20037;-77
2023/04/01 02:47:39;;;;;;;1.50;0.50;;;9.20;99.90;;;-144.05;86.80;56942.28;5033610;28;20033;-80
2023/04/01 02:50:07;;;;;;;1.40;0.50;;;9.20;99.90;;;-144.05;86.54;56972.03;5033090;28;20380;-78
2023/04/01 02:52:33;;;;;;;1.40;0.65;;;9.20;99.90;;;-144.05;86.17;56950.78;5051148;28;20055;-79
2023/04/01 02:54:59;;;;;;;3.33;0.85;;;9.20;99.90;;;-144.05;86.44;56967.78;5033391;28;20029;-78
2023/04/01 02:57:25;;;;;;;0.68;0.55;;;9.20;99.90;;;-144.05;86.15;56976.28;5051438;28;20031;-79
2023/04/01 02:59:51;;;;;;;1.52;0.60;;;9.10;99.90;;;-144.05;86.50;56969.91;5051378;28;20033;-77
2023/04/01 03:02:18;;;;;;;1.38;0.85;;;9.20;99.90;;;-144.05;85.92;56976.28;5033868;28;20033;-77
2023/04/01 03:04:44;;;;;;;2.30;0.50;;;9.20;99.90;;;-144.05;85.77;56961.41;5034931;28;20258;-79
2023/04/01 03:07:10;;;;;;;1.15;0.43;;;9.20;99.90;;;-144.05;85.55;56972.03;5052761;28;20461;-80
2023/04/01 03:09:38;;;;;;;1.85;0.50;;;9.20;99.90;;;-144.05;86.28;56935.91;5033293;28;20029;-77
2023/04/01 03:12:05;;;;;;;1.65;0.43;;;9.20;99.90;;;-144.05;86.14;56959.28;5033458;28;20501;-79
2023/04/01 03:14:30;;;;;;;5.15;0.77;;;9.20;99.90;;;-144.05;85.93;56963.53;5033316;28;20071;-78
2023/04/01 03:16:56;;;;;;;2.08;0.50;;;9.20;99.90;;;-144.05;86.05;56959.28;5051062;28;20115;-78
2023/04/01 03:19:22;;;;;;;0.77;0.55;;;9.20;99.90;;;-144.05;86.69;56969.91;5050880;28;20029;-78
2023/04/01 03:21:48;;;;;;;0.30;0.30;;;9.20;99.90;;;-144.05;86.94;56961.41;5050851;28;20036;-79
2023/04/01 03:24:14;;;;;;;0.57;0.52;;;9.10;99.90;;;-144.05;87.60;56959.28;5053482;28;20033;-79
2023/04/01 03:26:39;;;;;;;0.88;0.40;;;9.10;99.90;;;-144.05;87.93;56961.41;5055008;28;20056;-79
2023/04/01 03:29:05;;;;;;;0.60;0.25;;;9.10;99.90;;;-144.05;87.87;56967.78;5054855;28;20032;-79
2023/04/01 03:31:31;;;;;;;1.08;0.32;;;9.10;99.90;;;-144.05;86.99;56976.28;5055357;28;20021;-78
2023/04/01 03:33:57;;;;;;;1.65;0.40;;;9.10;99.90;;;-144.05;87.28;56944.41;5054680;28;20021;-79
2023/04/01 03:36:23;;;;;;;1.10;0.45;;;9.10;99.90;;;-144.05;87.17;56963.53;5054573;28;20033;-79
2023/04/01 03:38:49;;;;;;;2.30;0.60;;;9.10;99.90;;;-144.05;87.19;56967.78;5054322;28;20448;-80
2023/04/01 03:41:18;;;;;;;3.38;0.90;;;9.10;99.90;;;-144.05;87.39;56938.03;5054425;28;20502;-77
2023/04/01 03:43:44;;;;;;;0.70;0.40;;;9.10;99.90;;;-144.05;86.22;56965.66;5054319;28;20396;-79
2023/04/01 03:46:10;;;;;;;1.15;0.40;;;9.10;99.90;;;-144.05;86.30;56959.28;5054298;28;20422;-80
2023/04/01 03:48:36;;;;;;;2.55;0.90;;;9.00;99.90;;;-144.05;86.57;56948.66;5053894;28;20100;-80
2023/04/01 03:51:08;;;;;;;2.40;0.70;;;9.00;99.90;;;-144.05;86.97;56940.16;5036859;28;20025;-79
2023/04/01 03:53:34;;;;;;;0.40;0.40;;;9.00;99.90;;;-144.05;87.10;56972.03;5054705;28;20107;-80
2023/04/01 03:56:05;;;;;;;1.23;0.52;;;9.00;99.90;;;-144.05;87.63;56957.16;5036740;28;20396;-79
2023/04/01 03:58:31;;;;;;;0.77;0.50;;;9.00;99.90;;;-144.05;88.59;56959.28;5036779;28;20396;-78
2023/04/01 04:00:57;;;;;;;0.98;0.40;;;8.90;99.90;;;-144.05;88.30;56976.28;5054606;28;20104;-79
2023/04/01 04:03:23;;;;;;;0.63;0.30;;;9.00;99.90;;;-144.05;88.86;56944.41;5036992;28;20083;-80
2023/04/01 04:05:50;;;;;;;1.00;0.52;;;8.90;99.90;;;-144.05;88.49;56940.16;5055486;28;20107;-80
2023/04/01 04:08:17;;;;;;;1.05;0.50;;;8.90;99.90;;;-144.05;88.95;56967.78;5055294;28;20021;-81
2023/04/01 04:10:44;;;;;;;1.85;1.10;;;8.90;99.90;;;-144.05;89.34;56972.03;5063532;28;20059;-80
2023/04/01 04:13:10;;;;;;;1.48;0.60;;;8.90;99.90;;;-144.05;89.36;56950.78;5051503;28;20028;-79
2023/04/01 04:15:35;;;;;;;2.42;0.70;;;8.90;99.90;;;-144.05;89.71;56952.91;5068695;28;20051;-80
2023/04/01 04:18:01;;;;;;;1.88;0.82;;;8.90;99.90;;;-144.05;89.62;56946.53;5051550;28;20029;-78
2023/04/01 04:20:27;;;;;;;2.85;0.90;;;8.90;99.90;;;-144.05;89.80;56967.78;5068640;28;20029;-81
2023/04/01 04:22:53;;;;;;;3.08;0.90;;;8.90;99.90;;;-144.05;89.58;56942.28;5069456;28;20033;-79
2023/04/01 04:25:19;;;;;;;1.88;1.00;;;8.90;99.90;;;-144.05;89.90;56965.66;5051773;28;20033;-79
2023/04/01 04:27:44;;;;;;;1.77;1.00;;;8.90;99.90;;;-144.05;89.54;56959.28;5065511;28;20056;-75
2023/04/01 04:30:11;;;;;;;5.45;1.65;;;8.80;99.90;;;-144.05;89.18;56946.53;5057039;28;20393;-75
2023/04/01 04:32:37;;;;;;;5.85;2.38;;;8.90;99.90;;;-144.05;89.72;56980.53;5054428;28;20435;-79
2023/04/01 04:35:03;;;;;;;4.20;1.70;;;8.90;99.90;;;-144.05;89.53;56967.78;5054740;28;20029;-79
2023/04/01 04:37:29;;;;;;;3.47;1.55;;;8.90;99.90;;;-144.05;89.64;56959.28;5036353;28;20472;-78
2023/04/01 04:39:55;;;;;;;2.53;1.67;;;8.90;99.90;;;-144.05;89.90;56948.66;5054109;28;20039;-80
2023/04/01 04:42:21;;;;;;;6.00;1.92;;;8.90;99.90;;;-144.05;89.33;56952.91;5054167;28;20502;-79
2023/04/01 04:44:46;;;;;;;3.25;1.85;;;8.90;99.90;;;-144.05;89.36;56957.16;5053985;28;20043;-78
2023/04/01 04:47:12;;;;;;;2.22;1.63;;;8.90;99.90;;;-144.05;89.67;56944.41;5053946;28;20057;-78
2023/04/01 04:49:38;;;;;;;4.38;1.55;;;9.00;99.90;;;-144.05;89.25;56963.53;5054288;28;20021;-78
2023/04/01 04:52:04;;;;;;;4.63;1.80;;;9.00;99.90;;;-144.05;88.91;56974.16;5036193;28;20025;-79
2023/04/01 04:54:30;;;;;;;2.90;1.90;;;9.00;99.90;;;-144.05;89.39;57001.75;5053352;28;20021;-80
2023/04/01 04:56:56;;;;;;;4.93;2.60;;;9.10;99.90;;;-144.05;88.75;56955.03;5053321;28;20025;-79
2023/04/01 04:59:22;;;;;;;2.92;2.03;;;9.00;99.90;;;-144.05;89.00;56942.28;5053445;28;20066;-77
2023/04/01 05:01:47;;;;;;;3.08;1.95;;;9.00;99.90;;;-144.05;88.72;56959.28;5053531;28;20049;-80
2023/04/01 05:04:13;;;;;;;2.53;2.20;;;9.00;99.90;;;-144.05;88.31;56976.28;5053953;28;20040;-76
2023/04/01 05:06:39;;;;;;;2.20;1.83;;;9.00;99.90;;;-144.05;87.93;56959.28;5053627;28;20061;-78
2023/04/01 05:09:05;;;;;;;2.70;2.20;;;9.10;99.90;;;-144.05;88.15;56959.28;5035142;28;20029;-78
2023/04/01 05:11:31;;;;;;;5.03;1.92;;;9.00;99.90;;;-144.05;88.38;56950.78;5035671;28;20530;-80
2023/04/01 05:13:57;;;;;;;3.38;2.17;;;9.10;99.90;;;-144.05;88.54;56984.78;5035787;28;20116;-77
2023/04/01 05:16:22;;;;;;;2.38;1.88;;;9.10;99.90;;;-144.05;88.42;56959.28;5053461;28;20484;-78
2023/04/01 05:18:48;;;;;;;3.20;2.03;;;9.10;99.90;;;-144.05;88.09;56948.66;5053340;28;20033;-77
2023/04/01 05:21:15;;;;;;;6.05;1.98;;;9.10;99.90;;;-144.05;87.97;56952.91;5053635;28;20039;-79
2023/04/01 05:23:43;;;;;;;3.42;1.80;;;9.10;99.90;;;-144.05;87.61;56957.16;5053574;28;20055;-78
2023/04/01 05:26:13;;;;;;;2.80;2.08;;;9.10;99.90;;;-144.05;88.21;56929.53;5053966;28;20108;-78
2023/04/01 05:28:40;;;;;;;4.18;1.63;;;9.10;99.90;;;-144.05;88.15;56955.03;5052792;28;20025;-77
2023/04/01 05:31:08;;;;;;;3.95;1.80;;;9.10;99.90;;;-144.05;87.81;56959.28;5053290;28;20032;-78
2023/04/01 05:33:35;;;;;;;1.60;1.27;;;9.10;99.90;;;-144.05;87.63;56963.53;5053416;28;20056;-78
2023/04/01 05:36:16;;;;;;;2.15;1.45;;;9.10;99.90;;;-144.05;88.91;56955.03;5053758;28;20341;-76
2023/04/01 05:38:43;;;;;;;3.33;1.60;;;9.20;99.90;;;-144.05;88.59;56961.41;5052900;28;20063;-79
2023/04/01 05:41:09;;;;;;;1.60;1.50;;;9.10;99.90;;;-144.05;87.73;56982.66;5053307;28;20032;-79
2023/04/01 05:43:40;;;;;;;1.65;1.42;;;9.20;99.90;;;-144.05;87.47;56948.66;5052971;28;20025;-78
2023/04/01 05:46:06;;;;;;;2.45;1.20;;;9.20;99.90;;;-144.05;88.28;56935.91;5052789;28;20107;-78
2023/04/01 05:48:34;;;;;;;2.28;1.50;;;9.20;99.90;;;-144.05;88.31;56963.53;5052456;28;20027;-79
2023/04/01 05:51:02;;;;;;;2.55;1.73;;;9.20;99.90;;;-144.05;87.97;56948.66;5053052;28;20504;-78
2023/04/01 05:53:28;;;;;;;3.63;1.60;;;9.20;99.90;;;-144.05;88.08;56955.03;5053092;28;20109;-79
2023/04/01 05:55:54;;;;;;;2.30;1.30;;;9.20;99.90;;;-144.05;88.75;56950.78;5052900;28;20028;-81
2023/04/01 05:58:19;;;;;;;1.95;1.23;;;9.20;99.90;;;-144.05;88.16;56950.78;5052547;28;20028;-79
2023/04/01 06:00:46;;;;;;;2.53;1.02;;;9.20;99.90;;;-144.05;88.07;56959.28;5052797;28;20108;-80
2023/04/01 06:03:12;;;;;;;3.47;1.60;;;9.20;99.90;;;-144.05;87.45;56948.66;5053035;28;20065;-79
2023/04/01 06:05:44;;;;;;;2.72;1.80;;;9.30;99.90;;;-144.05;87.43;56955.03;5053106;28;20139;-80
2023/04/01 06:08:17;;;;;;;2.45;1.60;;;9.30;99.90;;;-144.05;87.73;56972.03;5053692;28;20029;-78
2023/04/01 06:11:19;;;;;;;3.15;1.65;;;9.30;99.90;;;-144.05;88.02;56967.78;5054023;28;20409;-75
2023/04/01 06:14:43;;;;;;;2.30;1.70;;;9.30;99.90;;;-144.05;87.85;56961.41;5034947;28;20396;-79
2023/04/01 06:18:02;;;;;;;3.85;1.77;;;9.30;99.90;;;-144.05;88.03;56974.16;5038579;28;20043;-76
2023/04/01 06:21:22;;;;;;;2.63;1.67;;;9.30;99.90;;;-144.05;88.02;56986.91;5053994;28;20389;-78
2023/04/01 06:24:47;;;;;;;1.88;1.40;;;9.40;99.90;;;-144.05;87.48;56967.78;5036036;28;20024;-79
2023/04/01 06:27:43;;;;;;;2.58;1.55;;;9.40;99.90;;;-144.05;87.25;56961.41;5053167;28;20037;-79
2023/04/01 06:31:00;;;;;;;3.22;1.50;;;9.40;99.90;;;-144.05;87.37;56955.03;5035035;28;20115;-79
2023/04/01 06:33:56;;;;;;;1.88;1.40;;;9.40;99.90;;;-144.05;87.47;56957.16;5050666;28;20041;-78
2023/04/01 06:37:35;;;;;;;3.75;1.42;;;9.40;99.90;;;-144.05;87.85;56986.91;5054078;28;20029;-78
2023/04/01 06:40:48;;;;;;;1.85;1.35;;;9.50;99.90;;;-144.05;87.22;56942.28;5053702;28;20025;-77
2023/04/01 06:44:29;;;;;;;2.85;1.35;;;9.50;99.90;;;-144.05;86.70;56974.16;5054037;28;20495;-78
2023/04/01 06:47:15;;;;;;;1.95;1.48;;;9.60;99.90;;;-144.05;86.99;56961.41;4956947;28;20035;-78
2023/04/01 06:50:20;;;;;;;2.15;1.35;;;9.60;99.90;;;-144.05;87.00;56946.53;5035847;28;20082;-77
2023/04/01 06:54:08;;;;;;;4.88;1.70;;;9.60;99.90;;;-144.05;87.80;56948.66;5053523;28;20049;-80
2023/04/01 06:56:42;;;;;;;1.88;1.30;;;9.60;99.90;;;-144.05;87.58;56952.91;5026833;28;20058;-79
2023/04/01 06:59:21;;;;;;;4.63;1.23;;;9.60;99.90;;;-144.05;87.13;56916.81;5061529;28;20031;-78
2023/04/01 07:01:57;;;;;;;2.55;1.27;;;9.60;99.90;;;-144.05;87.47;56965.66;5058264;28;20029;-79
2023/04/01 07:04:44;;;;;;;2.40;1.85;;;9.60;99.90;;;-144.05;87.20;56959.28;5059327;28;20029;-79
2023/04/01 07:07:34;;;;;;;4.00;2.00;;;9.60;99.90;;;-144.05;88.12;56963.53;5039215;28;20077;-78
2023/04/01 07:10:22;;;;;;;2.65;1.58;;;9.50;99.90;;;-144.05;87.85;56967.78;5039847;28;20033;-80
2023/04/01 07:12:59;;;;;;;3.80;1.80;;;9.50;99.90;;;-144.05;88.19;56938.03;5058115;28;20063;-78
2023/04/01 07:15:41;;;;;;;1.98;1.10;;;9.50;99.90;;;-144.05;87.81;56925.28;5057191;28;20025;-77
2023/04/01 07:18:28;;;;;;;1.95;1.20;;;9.50;99.90;;;-144.05;88.26;56950.78;5056066;28;20037;-78
2023/04/01 07:20:56;;;;;;;3.88;1.73;;;9.50;99.90;;;-144.05;88.22;56986.91;5056879;28;20103;-79
2023/04/01 07:23:31;;;;;;;2.17;1.30;;;9.50;99.90;;;-144.05;87.75;56946.53;5056716;28;20033;-78
2023/04/01 07:26:14;;;;;;;1.88;1.35;;;9.50;99.90;;;-144.05;87.77;56961.41;5039155;28;20035;-77
2023/04/01 07:28:40;;;;;;;3.08;1.35;;;9.50;99.90;;;-144.05;88.42;56940.16;5056720;28;20115;-80
2023/04/01 07:31:48;;;;;;;3.15;1.45;;;9.50;99.90;;;-144.05;88.93;56972.03;5038850;28;20056;-78
2023/04/01 07:34:28;;;;;;;2.53;1.27;;;9.40;99.90;;;-144.05;88.15;56969.91;5056558;28;20028;-78
2023/04/01 07:37:22;;;;;;;3.30;1.33;;;9.50;99.90;;;-144.05;88.23;56963.53;5056703;28;20029;-80
2023/04/01 07:40:38;;;;;;;2.38;1.30;;;9.50;99.90;;;-144.05;87.97;56944.41;5056651;28;20052;-79
2023/04/01 07:43:31;;;;;;;2.13;1.30;;;9.50;99.90;;;-144.05;88.00;56955.03;5038151;28;20035;-78
2023/04/01 07:46:32;;;;;;;3.05;1.33;;;9.60;99.90;;;-144.05;87.85;56967.78;5057115;28;20025;-77
2023/04/01 07:49:44;;;;;;;3.45;2.00;;;9.60;99.90;;;-144.05;87.97;56974.16;5055897;28;20048;-77
2023/04/01 07:52:44;;;;;;;2.83;1.13;;;9.70;99.90;;;-144.05;87.65;56935.91;5038521;28;20025;-78
2023/04/01 07:55:51;;;;;;;3.58;1.35;;;9.70;99.90;;;-144.05;87.58;56942.28;5056027;28;20029;-80
2023/04/01 07:58:50;;;;;;;3.28;1.20;;;9.80;99.90;;;-144.05;87.63;56952.91;5054759;28;20044;-79
2023/04/01 08:01:43;;;;;;;2.90;1.50;;;9.80;99.90;;;-144.05;87.61;56952.91;5039192;28;20075;-78
2023/04/01 08:04:57;;;;;;;3.08;1.90;;;9.70;99.90;;;-144.05;87.05;56972.03;5057362;28;20558;-79
2023/04/01 08:07:54;;;;;;;2.47;1.20;;;9.80;99.90;;;-144.05;87.62;56959.28;5056755;28;20025;-78
2023/04/01 08:10:50;;;;;;;2.45;1.63;;;9.80;99.90;;;-144.05;87.35;56957.16;5039023;28;20064;-77
2023/04/01 08:13:42;;;;;;;2.78;1.48;;;9.80;99.90;;;-144.05;87.29;56952.91;5056808;28;20047;-78
2023/04/01 08:16:49;;;;;;;2.08;1.30;;;9.80;99.90;;;-144.05;87.74;56938.03;5056952;28;20029;-80
2023/04/01 08:20:26;;;;;;;2.25;1.40;;;9.80;99.90;;;-144.05;87.29;56961.41;5037327;28;20082;-77
2023/04/01 08:23:08;;;;;;;1.75;1.38;;;9.80;99.90;;;-144.05;87.44;56959.28;5011008;28;20442;-78
2023/04/01 08:25:42;;;;;;;2.75;1.45;;;9.80;99.90;;;-144.05;86.72;56955.03;5037788;28;20029;-78
2023/04/01 08:29:11;;;;;;;1.95;1.25;;;9.90;99.90;;;-144.05;87.08;56959.28;5055677;28;20104;-79
2023/04/01 08:31:57;;;;;;;2.28;1.48;;;9.90;99.90;;;-144.05;86.55;56972.03;5053195;28;20542;-78
2023/04/01 08:34:50;;;;;;;3.00;1.77;;;10.00;99.90;;;-144.05;86.05;56961.41;5037288;28;20025;-79
2023/04/01 08:37:34;;;;;;;1.35;1.17;;;10.10;99.90;;;-144.05;85.56;56952.91;5055122;28;20025;-79
2023/04/01 08:41:20;;;;;;;3.15;1.77;;;10.10;99.90;;;-144.05;85.72;56944.41;5055081;28;20028;-79
2023/04/01 08:44:13;;;;;;;1.30;1.20;;;10.20;99.90;;;-144.05;85.92;56967.78;5036930;28;20060;-79
2023/04/01 08:48:08;;;;;;;1.15;0.70;;;10.10;99.90;;;-144.05;86.69;56967.78;5054975;28;20040;-80
2023/04/01 08:51:10;;;;;;;1.00;0.90;;;10.00;99.90;;;-144.05;86.11;56942.28;5005613;28;20044;-81
2023/04/01 08:54:02;;;;;;;1.52;1.25;;;10.00;99.90;;;-144.05;86.96;56946.53;5037584;28;20037;-80
2023/04/01 08:57:26;;;;;;;4.55;1.90;;;9.90;99.90;;;-144.05;86.73;56974.16;5055234;28;20431;-77
2023/04/01 09:00:04;;;;;;;1.73;1.40;;;9.90;99.90;;;-144.05;86.75;56967.78;4968462;28;20045;-78
2023/04/01 09:03:22;;;;;;;2.35;1.70;;;9.90;99.90;;;-144.05;87.23;56955.03;5036130;28;20091;-78
2023/04/01 09:06:32;;;;;;;3.25;1.98;;;9.80;99.90;;;-144.05;86.88;56942.28;5054375;28;20029;-77
2023/04/01 09:09:51;;;;;;;3.25;1.70;;;9.80;99.90;;;-144.05;87.05;56955.03;5053866;28;20029;-79
2023/04/01 09:12:42;;;;;;;3.13;1.75;;;9.80;99.90;;;-144.05;87.04;56961.41;5055631;28;20036;-79
2023/04/01 09:15:48;;;;;;;2.95;2.20;;;9.80;99.90;;;-144.05;87.33;56938.03;5038751;28;20021;-78
2023/04/01 09:18:49;;;;;;;2.58;1.65;;;9.80;99.90;;;-144.05;87.03;56946.53;5055961;28;20036;-78
2023/04/01 09:21:42;;;;;;;1.90;1.60;;;9.90;99.90;;;-144.05;87.20;56967.78;5053726;28;20487;-79
2023/04/01 09:24:46;;;;;;;3.63;2.17;;;9.90;99.90;;;-144.05;86.95;56942.28;5053913;28;20384;-79
2023/04/01 09:27:30;;;;;;;2.10;1.85;;;9.90;99.90;;;-144.05;87.49;56931.66;5055388;28;20488;-80
2023/04/01 09:30:59;;;;;;;3.70;2.42;;;9.90;99.90;;;-144.05;86.62;56967.78;5056566;28;20099;-78
2023/04/01 09:34:12;;;;;;;2.15;1.95;;;9.90;99.90;;;-144.05;86.66;56961.41;5013396;28;20040;-80
2023/04/01 09:37:18;;;;;;;3.30;2.55;;;10.00;99.90;;;-144.05;86.37;56944.41;5038252;28;20400;-81
2023/04/01 09:40:41;;;;;;;3.60;2.50;;;10.00;99.90;;;-144.05;86.16;56935.91;5058020;28;20039;-78
2023/04/01 09:44:04;;;;;;;2.35;2.00;;;10.00;99.90;;;-144.05;86.38;56931.66;5066568;28;20120;-80
2023/04/01 09:47:00;;;;;;;3.35;2.47;;;10.10;99.90;;;-144.05;85.77;56938.03;5039545;28;20029;-78
2023/04/01 09:50:06;;;;;;;4.22;2.90;;;10.10;99.90;;;-144.05;86.14;56965.66;5054723;28;20560;-78
2023/04/01 09:52:47;;;;;;;3.53;2.70;;;10.10;99.90;;;-144.05;86.82;56946.53;5055674;28;20154;-78
2023/04/01 09:56:00;;;;;;;3.97;3.17;;;10.10;99.90;;;-144.05;86.94;56950.78;5036143;28;20047;-77
2023/04/01 09:59:16;;;;;;;4.95;3.50;;;10.10;99.90;;;-144.05;86.44;56952.91;5055350;28;20074;-77
2023/04/01 10:02:32;;;;;;;3.97;3.25;;;10.10;99.90;;;-144.05;87.58;56948.66;5035077;28;20178;-77
2023/04/01 10:05:28;;;;;;;4.82;3.47;;;10.10;99.90;;;-144.05;87.48;56955.03;5036656;28;20028;-80
2023/04/01 10:08:51;;;;;;;5.87;4.17;;;10.10;99.90;;;-144.05;87.36;56978.41;5054517;28;20021;-78
2023/04/01 10:12:07;;;;;;;6.68;4.68;;;10.10;99.90;;;-144.05;87.86;56950.78;5035724;28;20029;-77
2023/04/01 10:15:37;;;;;;;5.22;3.92;;;10.20;99.90;;;-144.05;87.70;56969.91;5035031;28;20080;-78
2023/04/01 10:18:52;;;;;;;6.97;5.85;;;10.20;99.90;;;-144.05;87.14;56944.41;5014719;28;20037;-79
2023/04/01 10:22:24;;;;;;;6.57;4.97;;;10.40;99.90;;;-144.05;86.86;56967.78;5038480;28;20051;-79
2023/04/01 10:24:56;;;;;;;6.80;5.05;;;10.60;99.90;;;-144.05;85.12;56944.41;4955014;28;20448;-79
2023/04/01 10:28:08;;;;;;;5.63;4.75;;;10.80;99.90;;;-144.05;85.36;56950.78;4954906;28;20041;-79
2023/04/01 10:31:22;;;;;;;5.72;4.57;;;10.70;99.90;;;-144.05;85.39;56938.03;5038626;28;20033;-80
2023/04/01 10:34:26;;;;;;;6.65;5.35;;;10.80;99.90;;;-144.05;85.07;56938.03;5034258;28;20455;-76
2023/04/01 10:37:02;;;;;;;6.20;4.78;;;10.80;99.90;;;-144.05;85.16;56967.78;5034360;28;20025;-79
2023/04/01 10:40:25;;;;;;;5.72;4.90;;;10.70;99.90;;;-144.05;85.29;56972.03;5052614;28;20094;-77
2023/04/01 10:43:40;;;;;;;5.95;5.05;;;10.70;99.90;;;-144.05;85.08;56952.91;5052620;28;20037;-79
2023/04/01 10:46:44;;;;;;;4.47;3.97;;;10.60;99.90;;;-144.05;85.43;56972.03;5034846;28;20040;-78
2023/04/01 10:49:48;;;;;;;5.65;4.80;;;10.50;99.90;;;-144.05;85.97;56972.03;5033690;28;20078;-78
2023/04/01 10:53:01;;;;;;;5.65;4.40;;;10.60;99.90;;;-144.05;85.86;56955.03;5052118;28;20124;-79
2023/04/01 10:56:08;;;;;;;4.32;3.58;;;10.70;99.90;;;-144.05;85.84;56961.41;5052196;28;20025;-80
2023/04/01 10:59:04;;;;;;;8.43;4.35;;;10.60;99.90;;;-144.05;85.58;56957.16;5052005;28;20029;-79
2023/04/01 11:02:34;;;;;;;5.18;4.13;;;10.60;99.90;;;-144.05;86.11;56940.16;5052004;28;20155;-80
2023/04/01 11:05:36;;;;;;;5.05;4.38;;;10.70;99.90;;;-144.05;86.14;56969.91;5051917;28;20040;-79
2023/04/01 11:08:53;;;;;;;5.07;4.57;;;10.70;99.90;;;-144.05;86.36;56967.78;5051158;28;20514;-80
2023/04/01 11:12:23;;;;;;;5.35;4.22;;;10.80;99.90;;;-144.05;86.17;56946.53;5033691;28;20298;-79
2023/04/01 11:15:43;;;;;;;5.90;3.38;;;10.70;99.90;;;-144.05;85.93;56946.53;5051717;28;20040;-79
2023/04/01 11:18:58;;;;;;;5.45;4.40;;;10.70;99.90;;;-144.05;86.87;56948.66;5053057;28;20124;-80
2023/04/01 11:21:42;;;;;;;4.93;3.67;;;10.70;99.90;;;-144.05;86.02;56965.66;5035718;28;20044;-79
2023/04/01 11:24:51;;;;;;;5.00;3.65;;;10.70;99.90;;;-144.05;85.66;56942.28;5033895;28;20032;-81